createdAt,value
2018-05-03T00:01:30.692Z,99.90
2018-05-03T00:03:59.006Z,99.90
2018-05-03T00:06:27.838Z,99.90
2018-05-03T00:08:55.903Z,99.90
2018-05-03T00:11:24.116Z,99.90
2018-05-03T00:13:52.185Z,99.90
2018-05-03T00:16:20.247Z,99.90
2018-05-03T00:18:48.423Z,99.90
2018-05-03T00:21:16.488Z,99.90
2018-05-03T00:23:44.557Z,99.90
2018-05-03T00:26:12.857Z,99.90
2018-05-03T00:28:41.690Z,99.90
2018-05-03T00:31:09.759Z,99.90
2018-05-03T00:33:38.771Z,99.90
2018-05-03T00:36:06.863Z,99.90
2018-05-03T00:38:34.929Z,99.90
2018-05-03T00:41:03.424Z,99.90
2018-05-03T00:43:31.519Z,99.90
2018-05-03T00:46:00.349Z,99.90
2018-05-03T00:48:28.509Z,99.90
2018-05-03T00:50:56.586Z,99.90
2018-05-03T00:53:24.653Z,99.90
2018-05-03T00:55:53.379Z,99.90
2018-05-03T00:58:21.437Z,99.90
2018-05-03T01:00:49.513Z,99.90
2018-05-03T01:03:18.212Z,99.90
2018-05-03T01:05:46.285Z,99.90
2018-05-03T01:08:14.356Z,99.90
2018-05-03T01:10:43.035Z,99.90
2018-05-03T01:13:11.103Z,99.90
2018-05-03T01:15:39.178Z,99.90
2018-05-03T01:18:07.584Z,99.90
2018-05-03T01:20:36.429Z,99.90
2018-05-03T01:23:04.518Z,99.90
2018-05-03T01:25:33.012Z,99.90
2018-05-03T01:28:01.682Z,99.90
2018-05-03T01:30:29.772Z,99.90
2018-05-03T01:32:58.604Z,99.90
2018-05-03T01:35:38.628Z,99.90
2018-05-03T01:38:07.812Z,99.90
2018-05-03T01:40:36.644Z,99.90
2018-05-03T01:43:04.860Z,99.90
2018-05-03T01:45:32.954Z,99.90
2018-05-03T01:48:01.806Z,99.90
2018-05-03T01:50:30.290Z,99.90
2018-05-03T01:52:58.370Z,99.90
2018-05-03T01:55:26.432Z,99.90
2018-05-03T01:57:54.865Z,99.90
2018-05-03T02:00:22.931Z,99.90
2018-05-03T02:02:50.990Z,99.90
2018-05-03T02:05:19.981Z,99.90
2018-05-03T02:07:48.819Z,99.90
2018-05-03T02:10:16.881Z,99.90
2018-05-03T02:12:45.409Z,99.90
2018-05-03T02:15:13.473Z,99.90
2018-05-03T02:17:41.542Z,99.90
2018-05-03T02:20:09.925Z,99.90
2018-05-03T02:22:38.002Z,99.90
2018-05-03T02:25:06.069Z,99.90
2018-05-03T02:27:34.471Z,99.90
2018-05-03T02:30:03.328Z,99.90
2018-05-03T02:32:31.399Z,99.90
2018-05-03T02:34:59.897Z,99.90
2018-05-03T02:37:28.426Z,99.90
2018-05-03T02:39:56.494Z,99.90
2018-05-03T02:42:25.026Z,99.90
2018-05-03T02:44:53.093Z,99.90
2018-05-03T02:47:21.155Z,99.90
2018-05-03T02:49:49.557Z,99.90
2018-05-03T02:52:18.384Z,99.90
2018-05-03T02:54:46.448Z,99.90
2018-05-03T02:57:26.327Z,99.90
2018-05-03T03:00:06.222Z,99.90
2018-05-03T03:02:51.858Z,99.90
2018-05-03T03:05:49.014Z,99.90
2018-05-03T03:08:47.322Z,99.90
2018-05-03T03:11:40.757Z,99.90
2018-05-03T03:14:27.085Z,99.90
2018-05-03T03:17:12.725Z,99.90
2018-05-03T03:34:04.139Z,99.90
2018-05-03T03:40:14.418Z,99.90
2018-05-03T03:43:06.479Z,99.90
2018-05-03T03:45:34.556Z,99.90
2018-05-03T03:48:03.031Z,99.90
2018-05-03T03:50:31.130Z,99.90
2018-05-03T03:52:59.962Z,99.90
2018-05-03T03:55:28.472Z,99.90
2018-05-03T03:57:56.552Z,99.90
2018-05-03T04:00:24.626Z,99.90
2018-05-03T04:02:53.020Z,99.90
2018-05-03T04:05:21.858Z,99.90
2018-05-03T04:07:49.904Z,99.90
2018-05-03T04:10:18.446Z,99.90
2018-05-03T04:12:46.503Z,99.90
2018-05-03T04:15:14.568Z,99.90
2018-05-03T04:17:54.481Z,99.90
2018-05-03T04:20:40.077Z,99.90
2018-05-03T04:23:10.960Z,99.90
2018-05-03T04:25:50.622Z,99.90
2018-05-03T04:28:19.790Z,99.90
2018-05-03T04:30:47.848Z,99.90
2018-05-03T04:33:15.926Z,99.90
2018-05-03T04:35:44.322Z,99.90
2018-05-03T04:38:12.388Z,99.90
2018-05-03T04:40:40.928Z,99.90
2018-05-03T04:43:09.441Z,99.90
2018-05-03T04:45:37.549Z,99.90
2018-05-03T04:48:06.365Z,99.90
2018-05-03T04:50:34.876Z,99.90
2018-05-03T04:53:02.968Z,99.90
2018-05-03T04:55:31.029Z,99.90
2018-05-03T04:57:59.399Z,99.90
2018-05-03T05:00:27.478Z,99.90
2018-05-03T05:02:55.539Z,99.90
2018-05-03T05:05:23.919Z,99.90
2018-05-03T05:07:52.013Z,99.90
2018-05-03T05:10:20.077Z,99.90
2018-05-03T05:12:48.177Z,99.90
2018-05-03T05:15:17.035Z,99.90
2018-05-03T05:17:45.093Z,99.90
2018-05-03T05:20:13.586Z,99.90
2018-05-03T05:22:41.642Z,99.90
2018-05-03T05:25:09.698Z,99.90
2018-05-03T05:27:38.108Z,99.90
2018-05-03T05:30:06.204Z,99.90
2018-05-03T05:32:35.036Z,99.90
2018-05-03T05:35:03.549Z,99.90
2018-05-03T05:37:31.635Z,99.90
2018-05-03T05:40:00.468Z,99.90
2018-05-03T05:42:29.469Z,99.90
2018-05-03T05:44:57.542Z,99.90
2018-05-03T05:47:25.615Z,99.90
2018-05-03T05:49:54.124Z,99.90
2018-05-03T05:52:22.224Z,99.90
2018-05-03T05:54:51.061Z,99.90
2018-05-03T05:57:19.574Z,99.90
2018-05-03T05:59:47.645Z,99.90
2018-05-03T06:02:15.748Z,99.90
2018-05-03T06:04:44.400Z,99.90
2018-05-03T06:07:12.465Z,99.90
2018-05-03T06:09:40.553Z,99.90
2018-05-03T06:12:09.524Z,99.90
2018-05-03T06:14:37.620Z,99.90
2018-05-03T06:17:06.456Z,99.90
2018-05-03T06:19:34.964Z,99.90
2018-05-03T06:22:03.042Z,99.90
2018-05-03T06:24:31.108Z,99.90
2018-05-03T06:26:59.796Z,99.90
2018-05-03T06:29:27.880Z,99.90
2018-05-03T06:31:56.090Z,99.90
2018-05-03T06:34:24.330Z,99.90
2018-05-03T06:36:52.392Z,99.90
2018-05-03T06:39:20.469Z,99.90
2018-05-03T06:41:48.836Z,99.90
2018-05-03T06:44:17.267Z,99.90
2018-05-03T06:46:46.085Z,99.90
2018-05-03T06:49:14.591Z,99.90
2018-05-03T06:51:42.649Z,99.90
2018-05-03T06:54:10.749Z,99.90
2018-05-03T06:56:39.740Z,99.90
2018-05-03T06:59:07.806Z,99.90
2018-05-03T07:01:35.884Z,99.90
2018-05-03T07:04:05.184Z,99.90
2018-05-03T07:06:33.241Z,99.90
2018-05-03T07:09:01.334Z,99.90
2018-05-03T07:11:30.222Z,99.90
2018-05-03T07:13:58.293Z,99.90
2018-05-03T07:16:26.394Z,99.90
2018-05-03T07:18:54.819Z,99.90
2018-05-03T07:21:22.888Z,99.90
2018-05-03T07:23:50.978Z,99.90
2018-05-03T07:26:19.103Z,99.90
2018-05-03T07:28:47.163Z,99.90
2018-05-03T07:31:15.239Z,99.90
2018-05-03T07:33:43.545Z,99.90
2018-05-03T07:36:11.608Z,99.90
2018-05-03T07:38:39.691Z,99.90
2018-05-03T07:41:07.813Z,99.90
2018-05-03T07:43:35.891Z,99.90
2018-05-03T07:46:04.054Z,99.90
2018-05-03T07:48:32.664Z,99.90
2018-05-03T07:51:00.681Z,99.90
2018-05-03T07:53:29.510Z,99.90
2018-05-03T07:55:57.625Z,99.90
2018-05-03T07:58:25.687Z,99.90
2018-05-03T08:00:53.755Z,99.90
2018-05-03T08:03:22.257Z,99.90
2018-05-03T08:05:50.325Z,99.90
2018-05-03T08:08:18.392Z,99.90
2018-05-03T08:10:47.085Z,99.90
2018-05-03T08:13:15.156Z,99.90
2018-05-03T08:15:43.236Z,99.90
2018-05-03T08:18:12.229Z,99.90
2018-05-03T08:20:41.057Z,99.90
2018-05-03T08:23:09.128Z,99.90
2018-05-03T08:25:37.637Z,99.90
2018-05-03T08:28:05.715Z,99.90
2018-05-03T08:30:33.797Z,99.90
2018-05-03T08:33:02.470Z,99.90
2018-05-03T08:35:30.551Z,99.90
2018-05-03T08:37:58.618Z,99.90
2018-05-03T08:40:27.022Z,99.90
2018-05-03T08:42:55.868Z,99.90
2018-05-03T08:45:23.936Z,99.90
2018-05-03T08:47:53.535Z,99.90
2018-05-03T08:50:21.634Z,99.90
2018-05-03T08:52:49.710Z,99.90
2018-05-03T08:55:18.206Z,99.90
2018-05-03T08:57:46.277Z,99.90
2018-05-03T09:00:14.357Z,99.90
2018-05-03T09:02:43.242Z,99.90
2018-05-03T09:05:11.335Z,99.90
2018-05-03T09:07:39.456Z,99.90
2018-05-03T09:10:07.850Z,99.90
2018-05-03T09:12:35.922Z,99.90
2018-05-03T09:15:03.984Z,99.90
2018-05-03T09:17:32.422Z,99.90
2018-05-03T09:20:00.494Z,99.90
2018-05-03T09:22:28.604Z,99.90
2018-05-03T09:24:56.671Z,99.90
2018-05-03T09:27:24.754Z,99.90
2018-05-03T09:29:52.813Z,99.90
2018-05-03T09:32:21.222Z,99.90
2018-05-03T09:34:49.301Z,99.90
2018-05-03T09:37:17.361Z,99.80
2018-05-03T09:39:45.779Z,99.90
2018-05-03T09:42:13.918Z,99.40
2018-05-03T09:44:42.016Z,99.90
2018-05-03T09:47:10.469Z,99.00
2018-05-03T09:49:39.796Z,99.10
2018-05-03T09:52:08.594Z,98.90
2018-05-03T09:54:36.812Z,98.60
2018-05-03T09:57:04.900Z,98.20
2018-05-03T09:59:33.724Z,96.50
2018-05-03T10:02:01.862Z,96.40
2018-05-03T10:04:29.947Z,96.00
2018-05-03T10:06:58.011Z,96.60
2018-05-03T10:09:26.172Z,94.80
2018-05-03T10:11:54.245Z,95.60
2018-05-03T10:14:22.324Z,94.10
2018-05-03T10:16:51.600Z,93.10
2018-05-03T10:19:19.682Z,93.10
2018-05-03T10:21:47.756Z,92.50
2018-05-03T10:24:16.116Z,90.40
2018-05-03T10:26:44.193Z,90.20
2018-05-03T10:29:12.263Z,90.30
2018-05-03T10:31:40.654Z,90.20
2018-05-03T10:34:08.718Z,90.40
2018-05-03T10:36:36.786Z,90.90
2018-05-03T10:39:05.208Z,90.20
2018-05-03T10:41:33.267Z,90.60
2018-05-03T10:44:02.091Z,87.50
2018-05-03T10:46:30.610Z,87.50
2018-05-03T10:48:58.711Z,87.90
2018-05-03T10:51:28.336Z,85.60
2018-05-03T10:53:57.591Z,84.90
2018-05-03T10:56:25.660Z,84.90
2018-05-03T10:58:53.725Z,83.70
2018-05-03T11:01:22.160Z,83.20
2018-05-03T11:03:50.989Z,84.80
2018-05-03T11:06:19.809Z,83.60
2018-05-03T11:08:49.107Z,83.90
2018-05-03T11:11:17.929Z,85.50
2018-05-03T11:13:45.993Z,85.40
2018-05-03T11:16:14.164Z,83.40
2018-05-03T11:18:42.238Z,86.30
2018-05-03T11:21:10.286Z,86.00
2018-05-03T11:23:39.402Z,83.70
2018-05-03T11:26:07.466Z,83.70
2018-05-03T11:28:35.528Z,85.80
2018-05-03T11:31:03.884Z,85.20
2018-05-03T11:33:31.945Z,86.20
2018-05-03T11:36:00.017Z,88.70
2018-05-03T11:38:28.416Z,87.30
2018-05-03T11:40:57.243Z,87.20
2018-05-03T11:43:25.308Z,86.90
2018-05-03T11:45:53.878Z,86.00
2018-05-03T11:48:21.944Z,87.80
2018-05-03T11:50:50.014Z,88.10
2018-05-03T11:53:19.329Z,86.90
2018-05-03T11:55:48.124Z,87.10
2018-05-03T11:58:16.194Z,87.00
2018-05-03T12:00:44.756Z,86.30
2018-05-03T12:03:13.580Z,84.90
2018-05-03T12:05:41.637Z,84.90
2018-05-03T12:08:09.906Z,82.80
2018-05-03T12:10:37.972Z,86.20
2018-05-03T12:13:06.038Z,82.20
2018-05-03T12:15:34.381Z,82.70
2018-05-03T12:18:02.446Z,82.90
2018-05-03T12:20:30.497Z,84.80
2018-05-03T12:22:58.645Z,86.10
2018-05-03T12:25:26.712Z,83.70
2018-05-03T12:27:54.802Z,83.40
2018-05-03T12:30:23.131Z,82.30
2018-05-03T12:32:51.958Z,84.60
2018-05-03T12:35:20.026Z,84.50
2018-05-03T12:37:48.252Z,85.90
2018-05-03T12:40:16.321Z,85.20
2018-05-03T12:42:44.389Z,84.90
2018-05-03T12:45:12.576Z,86.30
2018-05-03T12:47:40.630Z,86.10
2018-05-03T12:50:08.733Z,86.10
2018-05-03T12:52:37.288Z,85.70
2018-05-03T12:55:05.827Z,84.00
2018-05-03T12:57:33.896Z,86.30
2018-05-03T13:00:02.088Z,85.20
2018-05-03T13:02:30.182Z,87.20
2018-05-03T13:04:58.240Z,85.60
2018-05-03T13:07:26.664Z,84.30
2018-05-03T13:09:55.520Z,86.90
2018-05-03T13:12:23.592Z,86.80
2018-05-03T13:14:52.078Z,85.00
2018-05-03T13:17:20.173Z,85.60
2018-05-03T13:19:48.998Z,86.20
2018-05-03T13:22:17.520Z,86.20
2018-05-03T13:24:45.606Z,86.50
2018-05-03T13:27:14.434Z,83.70
2018-05-03T13:29:42.642Z,83.60
2018-05-03T13:32:10.717Z,83.10
2018-05-03T13:34:38.784Z,84.00
2018-05-03T13:37:07.042Z,82.50
2018-05-03T13:39:35.137Z,81.00
2018-05-03T13:42:03.192Z,81.50
2018-05-03T13:44:31.396Z,80.10
2018-05-03T13:46:59.458Z,79.50
2018-05-03T13:49:27.536Z,79.80
2018-05-03T13:51:56.818Z,78.60
2018-05-03T13:54:24.934Z,79.80
2018-05-03T13:56:54.370Z,80.60
2018-05-03T13:59:22.584Z,80.60
2018-05-03T14:01:50.644Z,81.10
2018-05-03T14:04:18.709Z,80.80
2018-05-03T14:06:47.102Z,79.00
2018-05-03T14:09:15.176Z,80.80
2018-05-03T14:11:43.248Z,80.20
2018-05-03T14:14:11.945Z,81.50
2018-05-03T14:16:39.987Z,82.10
2018-05-03T14:19:08.053Z,81.10
2018-05-03T14:21:36.241Z,82.10
2018-05-03T14:24:04.328Z,80.00
2018-05-03T14:26:32.388Z,81.20
2018-05-03T14:29:00.506Z,82.70
2018-05-03T14:31:28.614Z,81.70
2018-05-03T14:33:56.672Z,82.20
2018-05-03T14:36:24.823Z,82.80
2018-05-03T14:38:52.882Z,82.80
2018-05-03T14:41:21.705Z,81.50
2018-05-03T14:43:50.013Z,81.50
2018-05-03T14:46:18.093Z,81.80
2018-05-03T14:48:46.165Z,81.10
2018-05-03T14:51:14.589Z,85.40
2018-05-03T14:53:42.661Z,87.10
2018-05-03T14:56:10.739Z,90.30
2018-05-03T14:58:39.842Z,90.30
2018-05-03T15:01:07.900Z,91.50
2018-05-03T15:03:35.965Z,92.50
2018-05-03T15:06:04.517Z,93.10
2018-05-03T15:08:33.351Z,93.70
2018-05-03T15:11:01.430Z,93.70
2018-05-03T15:13:29.936Z,93.80
2018-05-03T15:15:58.029Z,93.90
2018-05-03T15:18:26.860Z,93.80
2018-05-03T15:20:55.383Z,93.80
2018-05-03T15:23:23.522Z,93.30
2018-05-03T15:25:51.518Z,93.30
2018-05-03T15:28:19.681Z,93.60
2018-05-03T15:30:47.735Z,94.30
2018-05-03T15:33:15.796Z,94.00
2018-05-03T15:35:44.228Z,94.20
2018-05-03T15:38:12.304Z,94.00
2018-05-03T15:40:41.136Z,94.20
2018-05-03T15:43:09.589Z,94.20
2018-05-03T15:45:37.653Z,94.40
2018-05-03T15:48:06.472Z,94.40
2018-05-03T15:50:35.018Z,94.40
2018-05-03T15:53:03.866Z,95.10
2018-05-03T15:55:31.941Z,95.00
2018-05-03T15:58:00.453Z,94.90
2018-05-03T16:00:29.769Z,95.30
2018-05-03T16:02:58.111Z,95.20
2018-05-03T16:05:26.208Z,95.40
2018-05-03T16:07:55.029Z,95.50
2018-05-03T16:10:23.544Z,95.50
2018-05-03T16:12:51.650Z,95.40
2018-05-03T16:15:20.488Z,96.00
2018-05-03T16:17:48.687Z,95.90
2018-05-03T16:20:16.779Z,95.90
2018-05-03T16:22:45.619Z,96.10
2018-05-03T16:25:13.824Z,96.10
2018-05-03T16:27:41.937Z,96.10
2018-05-03T16:30:10.010Z,96.40
2018-05-03T16:32:38.347Z,96.60
2018-05-03T16:35:06.454Z,96.20
2018-05-03T16:37:35.281Z,96.50
2018-05-03T16:40:03.800Z,96.50
2018-05-03T16:42:31.906Z,96.10
2018-05-03T16:44:59.973Z,96.30
2018-05-03T16:47:28.617Z,96.00
2018-05-03T16:49:56.719Z,95.80
2018-05-03T16:52:25.626Z,96.30
2018-05-03T16:54:53.751Z,96.30
2018-05-03T16:57:21.968Z,96.10
2018-05-03T16:59:50.035Z,96.20
2018-05-03T17:02:18.939Z,96.60
2018-05-03T17:04:47.783Z,96.60
2018-05-03T17:07:15.843Z,96.60
2018-05-03T17:09:44.321Z,96.30
2018-05-03T17:12:12.394Z,96.80
2018-05-03T17:14:40.462Z,96.80
2018-05-03T17:17:08.848Z,96.60
2018-05-03T17:19:36.917Z,97.00
2018-05-03T17:22:04.978Z,96.50
2018-05-03T17:24:33.377Z,96.20
2018-05-03T17:27:01.461Z,95.70
2018-05-03T17:29:30.292Z,96.10
2018-05-03T17:31:58.804Z,96.10
2018-05-03T17:34:27.038Z,96.10
2018-05-03T17:36:55.103Z,96.20
2018-05-03T17:39:23.342Z,96.20
2018-05-03T17:41:51.457Z,96.10
2018-05-03T17:44:19.545Z,95.90
2018-05-03T17:46:47.852Z,95.90
2018-05-03T17:49:15.932Z,96.10
2018-05-03T17:51:43.996Z,96.80
2018-05-03T17:54:12.367Z,96.70
2018-05-03T17:56:40.444Z,96.10
2018-05-03T17:59:08.519Z,96.00
2018-05-03T18:01:36.692Z,96.10
2018-05-03T18:04:05.625Z,96.10
2018-05-03T18:06:34.428Z,95.90
2018-05-03T18:09:02.551Z,95.80
2018-05-03T18:11:30.614Z,95.80
2018-05-03T18:13:58.682Z,96.20
2018-05-03T18:16:27.205Z,96.10
2018-05-03T18:18:56.018Z,96.40
2018-05-03T18:21:24.170Z,96.30
2018-05-03T18:23:52.640Z,96.50
2018-05-03T18:26:21.473Z,96.30
2018-05-03T18:28:49.540Z,96.30
2018-05-03T18:31:17.697Z,96.10
2018-05-03T18:33:45.773Z,96.20
2018-05-03T18:36:13.837Z,95.90
2018-05-03T18:38:41.995Z,96.00
2018-05-03T18:41:10.067Z,96.20
2018-05-03T18:43:38.180Z,96.00
2018-05-03T18:46:06.807Z,95.80
2018-05-03T18:48:35.635Z,94.90
2018-05-03T18:51:04.621Z,94.70
2018-05-03T18:53:33.195Z,94.70
2018-05-03T18:56:01.250Z,94.70
2018-05-03T18:58:29.343Z,94.90
2018-05-03T19:00:57.562Z,94.30
2018-05-03T19:03:25.563Z,93.90
2018-05-03T19:05:53.974Z,94.10
2018-05-03T19:08:22.209Z,94.00
2018-05-03T19:10:51.040Z,93.50
2018-05-03T19:13:19.195Z,93.50
2018-05-03T19:15:47.327Z,93.60
2018-05-03T19:18:15.385Z,93.50
2018-05-03T19:20:43.530Z,93.60
2018-05-03T19:23:11.882Z,93.40
2018-05-03T19:25:39.962Z,93.20
2018-05-03T19:28:08.015Z,93.30
2018-05-03T19:30:37.315Z,94.00
2018-05-03T19:33:06.145Z,93.30
2018-05-03T19:35:34.272Z,93.20
2018-05-03T19:38:02.356Z,93.20
2018-05-03T19:40:30.433Z,93.80
2018-05-03T19:42:58.502Z,93.90
2018-05-03T19:45:26.957Z,93.90
2018-05-03T19:47:55.786Z,93.50
2018-05-03T19:50:23.871Z,93.50
2018-05-03T19:52:52.398Z,94.20
2018-05-03T19:55:20.520Z,95.10
2018-05-03T19:57:48.519Z,94.10
2018-05-03T20:00:16.654Z,94.30
2018-05-03T20:02:44.704Z,93.60
2018-05-03T20:05:12.770Z,93.10
2018-05-03T20:07:42.504Z,93.40
2018-05-03T20:10:10.574Z,93.30
2018-05-03T20:12:38.640Z,92.70
2018-05-03T20:15:06.816Z,92.80
2018-05-03T20:17:34.932Z,93.20
2018-05-03T20:20:03.009Z,93.00
2018-05-03T20:22:31.682Z,93.30
2018-05-03T20:25:00.209Z,93.30
2018-05-03T20:27:28.300Z,94.30
2018-05-03T20:29:56.656Z,94.70
2018-05-03T20:32:25.012Z,93.00
2018-05-03T20:34:53.085Z,93.30
2018-05-03T20:37:21.196Z,92.80
2018-05-03T20:39:49.282Z,93.10
2018-05-03T20:42:17.337Z,92.90
2018-05-03T20:44:45.897Z,93.10
2018-05-03T20:47:14.726Z,93.90
2018-05-03T20:49:42.795Z,93.90
2018-05-03T20:52:10.936Z,94.20
2018-05-03T20:54:39.007Z,94.40
2018-05-03T20:57:07.829Z,94.00
2018-05-03T20:59:36.449Z,94.00
2018-05-03T21:02:04.573Z,93.70
2018-05-03T21:04:32.622Z,93.60
2018-05-03T21:07:01.892Z,93.40
2018-05-03T21:09:30.624Z,93.40
2018-05-03T21:11:59.429Z,94.70
2018-05-03T21:14:27.932Z,94.70
2018-05-03T21:16:56.007Z,94.90
2018-05-03T21:19:24.083Z,94.30
2018-05-03T21:21:52.469Z,95.80
2018-05-03T21:24:20.578Z,96.00
2018-05-03T21:26:48.636Z,94.90
2018-05-03T21:29:17.596Z,96.00
2018-05-03T21:31:45.696Z,95.90
2018-05-03T21:34:14.524Z,94.40
2018-05-03T21:39:17.404Z,94.50
2018-05-03T21:41:45.729Z,94.60
2018-05-03T21:44:14.499Z,94.30
2018-05-03T21:46:42.567Z,94.30
2018-05-03T21:49:11.086Z,95.60
2018-05-03T21:51:39.145Z,95.80
2018-05-03T21:54:07.212Z,96.20
2018-05-03T21:56:35.656Z,95.90
2018-05-03T21:59:03.720Z,95.00
2018-05-03T22:01:31.788Z,95.00
2018-05-03T22:04:00.549Z,94.60
2018-05-03T22:06:28.496Z,95.30
2018-05-03T22:08:56.572Z,95.00
2018-05-03T22:11:24.848Z,94.50
2018-05-03T22:13:52.991Z,94.10
2018-05-03T22:16:21.019Z,94.50
2018-05-03T22:18:49.260Z,94.30
2018-05-03T22:21:17.319Z,94.80
2018-05-03T22:23:45.394Z,94.70
2018-05-03T22:26:13.678Z,94.20
2018-05-03T22:28:41.758Z,95.00
2018-05-03T22:31:09.817Z,95.80
2018-05-03T22:33:38.231Z,95.70
2018-05-03T22:36:08.078Z,94.00
2018-05-03T22:38:36.139Z,93.90
2018-05-03T22:41:04.561Z,94.40
2018-05-03T22:43:32.953Z,93.70
2018-05-03T22:46:01.002Z,94.00
2018-05-03T22:48:29.225Z,95.00
2018-05-03T22:50:57.316Z,95.70
2018-05-03T22:53:25.388Z,94.50
2018-05-03T22:55:53.605Z,94.60
2018-05-03T22:58:21.702Z,95.80
2018-05-03T23:00:50.535Z,94.60
2018-05-03T23:03:18.748Z,94.50
2018-05-03T23:05:46.837Z,94.00
2018-05-03T23:08:15.667Z,94.10
2018-05-03T23:10:44.181Z,94.10
2018-05-03T23:13:12.917Z,94.00
2018-05-03T23:15:41.715Z,93.30
2018-05-03T23:18:09.928Z,93.20
2018-05-03T23:20:38.005Z,93.10
2018-05-03T23:23:06.071Z,93.50
2018-05-03T23:25:34.481Z,93.20
2018-05-03T23:28:03.329Z,93.10
2018-05-03T23:30:31.485Z,93.10
2018-05-03T23:32:59.897Z,92.70
2018-05-03T23:35:27.994Z,93.00
2018-05-03T23:37:56.818Z,93.00
2018-05-03T23:40:25.330Z,93.00
2018-05-03T23:42:53.444Z,93.20
2018-05-03T23:45:21.522Z,93.40
2018-05-03T23:47:49.858Z,93.70
2018-05-03T23:50:18.274Z,93.50
2018-05-03T23:52:46.353Z,93.80
2018-05-03T23:55:14.426Z,93.70
2018-05-03T23:57:42.750Z,94.20
